This is the latest recevied weather packets stored in our database for station/object KF0PEC-15. If no packets are shown the sender has not sent any weather packets the latest 10 day(s).
| Time | Temp. | Humidity | Pressure | Rain* | Wind** | Luminosity | Snow |
|---|---|---|---|---|---|---|---|
| 1777872130 | 11.11° C | 42% | 1013.3 hPa | 0 mm | - | 0 W/m² | - |
| 1777871585 | 10.56° C | 41% | 1013.4 hPa | 0 mm | - | 0 W/m² | - |
| 1777871037 | 10.56° C | 42% | 1013.5 hPa | 0 mm | - | 0 W/m² | - |
| 1777870520 | 11.11° C | 43% | 1013.3 hPa | 0 mm | - | 0 W/m² | - |
| 1777869965 | 11.11° C | 41% | 1013.3 hPa | 0 mm | - | 0 W/m² | - |
| 1777869385 | 12.22° C | 39% | 1012.8 hPa | 0 mm | - | 0 W/m² | - |
| 1777868797 | 12.22° C | 37% | 1012.4 hPa | 0 mm | - | 0 W/m² | - |
| 1777868270 | 12.78° C | 36% | 1012.3 hPa | 0 mm | - | 0 W/m² | - |
| 1777867677 | 12.78° C | 37% | 1012.2 hPa | 0 mm | - | 0 W/m² | - |
| 1777867157 | 13.33° C | 36% | 1011.6 hPa | 0 mm | - | 0 W/m² | - |
| 1777866620 | 13.33° C | 35% | 1011.4 hPa | 0 mm | - | 0 W/m² | - |
| 1777866097 | 13.89° C | 34% | 1011 hPa | 0 mm | - | 0 W/m² | - |
| 1777865507 | 14.44° C | 34% | 1010.7 hPa | 0 mm | - | 0 W/m² | - |
| 1777864925 | 15° C | 32% | 1010.2 hPa | 0 mm | - | 0 W/m² | - |
| 1777864425 | 15.56° C | 31% | 1009.6 hPa | 0 mm | - | 0 W/m² | - |
| 1777863915 | 16.11° C | 30% | 1009.1 hPa | 0 mm | - | 0 W/m² | - |
| 1777863420 | 16.11° C | 29% | 1008.9 hPa | 0 mm | - | 0 W/m² | - |
| 1777862940 | 16.11° C | 29% | 1008.7 hPa | 0 mm | - | 0 W/m² | - |
| 1777862380 | 16.11° C | 29% | 1008.4 hPa | 0 mm | - | 0 W/m² | - |
| 1777861810 | 16.67° C | 28% | 1007.9 hPa | 0 mm | - | 0 W/m² | - |
| 1777861265 | 16.67° C | 27% | 1007.5 hPa | 0 mm | - | 0 W/m² | - |
| 1777860725 | 17.22° C | 26% | 1007.3 hPa | 0 mm | - | 20 W/m² | - |
| 1777860240 | 17.78° C | 26% | 1007 hPa | 0 mm | - | 107 W/m² | - |
| 1777859645 | 17.78° C | 26% | 1007.1 hPa | 0 mm | - | 270 W/m² | - |
| 1777859065 | 18.33° C | 25% | 1006.8 hPa | 0 mm | - | 536 W/m² | - |
* Rain latest hour (hover to see other rain measurements)
** Current wind speed in m/s (hover to see current wind gust speed)